sensor_id;sensor_type;location;lat;lon;timestamp;pressure;altitude;pressure_sealevel;temperature;humidity
66945;BME280;53853;51.982;5.928;2022-09-09T00:01:31;100686.94;;;16.77;76.24
66945;BME280;53853;51.982;5.928;2022-09-09T00:04:12;100693.34;;;16.76;76.36
66945;BME280;53853;51.982;5.928;2022-09-09T00:06:46;100685.25;;;16.76;76.04
66945;BME280;53853;51.982;5.928;2022-09-09T00:09:22;100680.53;;;16.78;76.32
66945;BME280;53853;51.982;5.928;2022-09-09T00:11:56;100679.69;;;16.78;76.85
66945;BME280;53853;51.982;5.928;2022-09-09T00:14:41;100692.13;;;16.79;77.42
66945;BME280;53853;51.982;5.928;2022-09-09T00:17:19;100677.66;;;16.80;77.00
66945;BME280;53853;51.982;5.928;2022-09-09T00:19:58;100683.03;;;16.80;77.33
66945;BME280;53853;51.982;5.928;2022-09-09T00:22:30;100679.28;;;16.81;77.30
66945;BME280;53853;51.982;5.928;2022-09-09T00:25:10;100680.97;;;16.82;77.67
66945;BME280;53853;51.982;5.928;2022-09-09T00:27:47;100676.59;;;16.81;77.30
66945;BME280;53853;51.982;5.928;2022-09-09T00:30:20;100677.47;;;16.81;77.82
66945;BME280;53853;51.982;5.928;2022-09-09T00:32:53;100678.28;;;16.82;77.63
66945;BME280;53853;51.982;5.928;2022-09-09T00:35:26;100679.59;;;16.86;77.70
66945;BME280;53853;51.982;5.928;2022-09-09T00:38:01;100683.94;;;16.87;77.31
66945;BME280;53853;51.982;5.928;2022-09-09T00:40:39;100679.00;;;16.91;77.10
66945;BME280;53853;51.982;5.928;2022-09-09T00:43:26;100684.59;;;16.89;77.24
66945;BME280;53853;51.982;5.928;2022-09-09T00:49:07;100666.56;;;16.90;77.34
66945;BME280;53853;51.982;5.928;2022-09-09T00:51:48;100665.75;;;16.89;77.61
66945;BME280;53853;51.982;5.928;2022-09-09T00:54:40;100674.47;;;16.91;77.51
66945;BME280;53853;51.982;5.928;2022-09-09T00:57:23;100667.81;;;16.94;76.85
66945;BME280;53853;51.982;5.928;2022-09-09T01:00:00;100661.19;;;16.90;76.85
66945;BME280;53853;51.982;5.928;2022-09-09T01:02:35;100665.09;;;16.87;77.03
66945;BME280;53853;51.982;5.928;2022-09-09T01:05:17;100659.25;;;16.83;77.13
66945;BME280;53853;51.982;5.928;2022-09-09T01:07:50;100657.13;;;16.79;76.74
66945;BME280;53853;51.982;5.928;2022-09-09T01:10:28;100663.28;;;16.73;77.28
66945;BME280;53853;51.982;5.928;2022-09-09T01:13:02;100667.22;;;16.70;77.02
66945;BME280;53853;51.982;5.928;2022-09-09T01:15:36;100661.84;;;16.70;76.74
66945;BME280;53853;51.982;5.928;2022-09-09T01:18:11;100673.81;;;16.67;77.12
66945;BME280;53853;51.982;5.928;2022-09-09T01:20:54;100667.81;;;16.65;77.25
66945;BME280;53853;51.982;5.928;2022-09-09T01:23:47;100662.16;;;16.60;77.08
66945;BME280;53853;51.982;5.928;2022-09-09T01:26:34;100665.66;;;16.54;77.46
66945;BME280;53853;51.982;5.928;2022-09-09T01:29:11;100673.06;;;16.52;77.73
66945;BME280;53853;51.982;5.928;2022-09-09T01:31:51;100667.88;;;16.51;77.85
66945;BME280;53853;51.982;5.928;2022-09-09T01:34:22;100668.06;;;16.49;77.35
66945;BME280;53853;51.982;5.928;2022-09-09T01:36:57;100665.56;;;16.47;76.73
66945;BME280;53853;51.982;5.928;2022-09-09T01:39:29;100669.50;;;16.45;76.78
66945;BME280;53853;51.982;5.928;2022-09-09T01:42:08;100669.50;;;16.45;76.71
66945;BME280;53853;51.982;5.928;2022-09-09T01:44:38;100671.50;;;16.43;76.79
66945;BME280;53853;51.982;5.928;2022-09-09T01:47:09;100667.19;;;16.42;76.37
66945;BME280;53853;51.982;5.928;2022-09-09T01:49:54;100657.81;;;16.38;76.47
66945;BME280;53853;51.982;5.928;2022-09-09T01:52:27;100660.69;;;16.36;76.30
66945;BME280;53853;51.982;5.928;2022-09-09T01:54:57;100671.03;;;16.33;76.67
66945;BME280;53853;51.982;5.928;2022-09-09T01:57:41;100668.09;;;16.27;76.94
66945;BME280;53853;51.982;5.928;2022-09-09T02:00:16;100656.84;;;16.24;76.74
66945;BME280;53853;51.982;5.928;2022-09-09T02:02:59;100655.22;;;16.23;76.49
66945;BME280;53853;51.982;5.928;2022-09-09T02:05:41;100652.25;;;16.18;76.88
66945;BME280;53853;51.982;5.928;2022-09-09T02:08:23;100654.28;;;16.16;76.49
66945;BME280;53853;51.982;5.928;2022-09-09T02:11:07;100651.78;;;16.14;76.76
66945;BME280;53853;51.982;5.928;2022-09-09T02:13:49;100649.50;;;16.11;76.46
66945;BME280;53853;51.982;5.928;2022-09-09T02:16:24;100648.84;;;16.09;76.51
66945;BME280;53853;51.982;5.928;2022-09-09T02:19:02;100646.56;;;16.06;76.54
66945;BME280;53853;51.982;5.928;2022-09-09T02:21:45;100650.25;;;16.05;76.49
66945;BME280;53853;51.982;5.928;2022-09-09T02:24:17;100655.81;;;16.03;76.76
66945;BME280;53853;51.982;5.928;2022-09-09T02:26:56;100653.97;;;16.04;76.47
66945;BME280;53853;51.982;5.928;2022-09-09T02:29:32;100644.25;;;16.03;76.29
66945;BME280;53853;51.982;5.928;2022-09-09T02:32:07;100645.25;;;16.02;76.18
66945;BME280;53853;51.982;5.928;2022-09-09T02:34:42;100648.13;;;16.00;76.05
66945;BME280;53853;51.982;5.928;2022-09-09T02:37:13;100638.34;;;15.92;76.74
66945;BME280;53853;51.982;5.928;2022-09-09T02:39:48;100639.38;;;15.91;76.76
66945;BME280;53853;51.982;5.928;2022-09-09T02:42:21;100638.72;;;15.89;76.79
66945;BME280;53853;51.982;5.928;2022-09-09T02:44:55;100634.38;;;15.88;76.73
66945;BME280;53853;51.982;5.928;2022-09-09T02:47:29;100635.38;;;15.87;76.25
66945;BME280;53853;51.982;5.928;2022-09-09T02:50:13;100627.69;;;15.84;76.67
66945;BME280;53853;51.982;5.928;2022-09-09T02:53:01;100626.06;;;15.83;76.87
66945;BME280;53853;51.982;5.928;2022-09-09T02:55:44;100630.13;;;15.79;76.79
66945;BME280;53853;51.982;5.928;2022-09-09T02:58:17;100632.53;;;15.74;77.86
66945;BME280;53853;51.982;5.928;2022-09-09T03:00:59;100627.53;;;15.71;77.76
66945;BME280;53853;51.982;5.928;2022-09-09T03:03:31;100635.97;;;15.68;77.77
66945;BME280;53853;51.982;5.928;2022-09-09T03:06:06;100625.59;;;15.65;77.77
66945;BME280;53853;51.982;5.928;2022-09-09T03:08:37;100640.44;;;15.61;78.91
66945;BME280;53853;51.982;5.928;2022-09-09T03:11:08;100631.34;;;15.62;78.66
66945;BME280;53853;51.982;5.928;2022-09-09T03:13:38;100625.59;;;15.65;78.00
66945;BME280;53853;51.982;5.928;2022-09-09T03:16:11;100640.31;;;15.69;77.52
66945;BME280;53853;51.982;5.928;2022-09-09T03:18:44;100643.00;;;15.69;77.74
66945;BME280;53853;51.982;5.928;2022-09-09T03:21:14;100637.63;;;15.69;78.15
66945;BME280;53853;51.982;5.928;2022-09-09T03:23:44;100643.00;;;15.69;78.24
66945;BME280;53853;51.982;5.928;2022-09-09T03:26:15;100644.28;;;15.73;77.49
66945;BME280;53853;51.982;5.928;2022-09-09T03:28:47;100643.66;;;15.71;77.73
66945;BME280;53853;51.982;5.928;2022-09-09T03:31:22;100645.97;;;15.74;77.63
66945;BME280;53853;51.982;5.928;2022-09-09T03:33:52;100652.34;;;15.73;77.57
66945;BME280;53853;51.982;5.928;2022-09-09T03:36:22;100652.53;;;15.71;77.53
66945;BME280;53853;51.982;5.928;2022-09-09T03:38:53;100648.38;;;15.69;78.30
66945;BME280;53853;51.982;5.928;2022-09-09T03:41:26;100643.38;;;15.66;78.07
66945;BME280;53853;51.982;5.928;2022-09-09T03:43:56;100648.56;;;15.67;77.79
66945;BME280;53853;51.982;5.928;2022-09-09T03:46:30;100646.72;;;15.68;77.37
66945;BME280;53853;51.982;5.928;2022-09-09T03:49:00;100647.09;;;15.65;78.26
66945;BME280;53853;51.982;5.928;2022-09-09T03:51:32;100647.72;;;15.67;77.59
66945;BME280;53853;51.982;5.928;2022-09-09T03:54:04;100641.72;;;15.65;78.28
66945;BME280;53853;51.982;5.928;2022-09-09T03:56:37;100643.56;;;15.64;78.21
66945;BME280;53853;51.982;5.928;2022-09-09T03:59:10;100640.88;;;15.64;78.37
66945;BME280;53853;51.982;5.928;2022-09-09T04:01:44;100636.97;;;15.67;78.04
66945;BME280;53853;51.982;5.928;2022-09-09T04:04:14;100643.19;;;15.67;78.48
66945;BME280;53853;51.982;5.928;2022-09-09T04:06:44;100641.34;;;15.68;78.75
66945;BME280;53853;51.982;5.928;2022-09-09T04:09:15;100640.59;;;15.74;78.14
66945;BME280;53853;51.982;5.928;2022-09-09T04:11:45;100640.25;;;15.77;78.30
66945;BME280;53853;51.982;5.928;2022-09-09T04:14:16;100637.81;;;15.82;77.90
66945;BME280;53853;51.982;5.928;2022-09-09T04:16:48;100634.56;;;15.87;77.81
66945;BME280;53853;51.982;5.928;2022-09-09T04:19:18;100635.19;;;15.89;nan
66945;BME280;53853;51.982;5.928;2022-09-09T04:21:48;100634.00;;;15.91;78.20
66945;BME280;53853;51.982;5.928;2022-09-09T04:24:19;100623.88;;;15.93;78.25
66945;BME280;53853;51.982;5.928;2022-09-09T04:26:50;100623.69;;;15.95;78.34
66945;BME280;53853;51.982;5.928;2022-09-09T04:29:19;100623.13;;;16.00;77.78
66945;BME280;53853;51.982;5.928;2022-09-09T04:31:52;100619.41;;;16.01;77.89
66945;BME280;53853;51.982;5.928;2022-09-09T04:34:22;100619.22;;;16.02;77.86
66945;BME280;53853;51.982;5.928;2022-09-09T04:36:54;100621.06;;;16.02;78.00
66945;BME280;53853;51.982;5.928;2022-09-09T04:39:24;100617.38;;;16.03;77.88
66945;BME280;53853;51.982;5.928;2022-09-09T04:41:54;100617.75;;;16.00;78.63
66945;BME280;53853;51.982;5.928;2022-09-09T04:44:24;100622.72;;;16.03;78.15
66945;BME280;53853;51.982;5.928;2022-09-09T04:46:58;100621.72;;;16.04;78.53
66945;BME280;53853;51.982;5.928;2022-09-09T04:49:28;100614.47;;;16.04;78.90
66945;BME280;53853;51.982;5.928;2022-09-09T04:51:58;100621.34;;;16.07;78.72
66945;BME280;53853;51.982;5.928;2022-09-09T04:54:28;100618.09;;;16.11;78.07
66945;BME280;53853;51.982;5.928;2022-09-09T04:56:58;100611.09;;;16.17;78.01
66945;BME280;53853;51.982;5.928;2022-09-09T04:59:28;100611.72;;;16.19;78.22
66945;BME280;53853;51.982;5.928;2022-09-09T05:02:03;100617.56;;;16.23;77.88
66945;BME280;53853;51.982;5.928;2022-09-09T05:04:32;100623.75;;;16.23;77.78
66945;BME280;53853;51.982;5.928;2022-09-09T05:07:02;100615.50;;;16.25;77.85
66945;BME280;53853;51.982;5.928;2022-09-09T05:09:33;100614.31;;;16.27;78.02
66945;BME280;53853;51.982;5.928;2022-09-09T05:12:03;100608.72;;;16.29;78.13
66945;BME280;53853;51.982;5.928;2022-09-09T05:14:36;100608.97;;;16.34;78.09
66945;BME280;53853;51.982;5.928;2022-09-09T05:17:09;100606.72;;;16.38;77.75
66945;BME280;53853;51.982;5.928;2022-09-09T05:19:40;100600.31;;;16.39;78.23
66945;BME280;53853;51.982;5.928;2022-09-09T05:22:10;100598.28;;;16.41;78.18
66945;BME280;53853;51.982;5.928;2022-09-09T05:24:45;100601.59;;;16.43;78.23
66945;BME280;53853;51.982;5.928;2022-09-09T05:27:15;100596.00;;;16.44;78.27
66945;BME280;53853;51.982;5.928;2022-09-09T05:29:44;100601.00;;;16.47;78.06
66945;BME280;53853;51.982;5.928;2022-09-09T05:32:17;100606.84;;;16.51;78.02
66945;BME280;53853;51.982;5.928;2022-09-09T05:34:49;100599.22;;;16.55;78.00
66945;BME280;53853;51.982;5.928;2022-09-09T05:37:19;100612.66;;;16.55;78.19
66945;BME280;53853;51.982;5.928;2022-09-09T05:39:50;100604.00;;;16.59;78.13
66945;BME280;53853;51.982;5.928;2022-09-09T05:42:20;100611.69;;;16.62;78.02
66945;BME280;53853;51.982;5.928;2022-09-09T05:44:50;100598.88;;;16.64;77.90
66945;BME280;53853;51.982;5.928;2022-09-09T05:47:24;100600.53;;;16.65;77.93
66945;BME280;53853;51.982;5.928;2022-09-09T05:49:55;100609.88;;;16.70;77.82
66945;BME280;53853;51.982;5.928;2022-09-09T05:52:25;100600.59;;;16.72;77.83
66945;BME280;53853;51.982;5.928;2022-09-09T05:54:57;100604.09;;;16.73;77.90
66945;BME280;53853;51.982;5.928;2022-09-09T05:57:26;100613.03;;;16.73;77.48
66945;BME280;53853;51.982;5.928;2022-09-09T05:59:56;100602.03;;;16.75;77.54
66945;BME280;53853;51.982;5.928;2022-09-09T06:02:29;100605.38;;;16.77;77.56
66945;BME280;53853;51.982;5.928;2022-09-09T06:05:00;100611.59;;;16.77;77.39
66945;BME280;53853;51.982;5.928;2022-09-09T06:07:30;100606.00;;;16.79;77.78
66945;BME280;53853;51.982;5.928;2022-09-09T06:09:59;100603.13;;;16.80;77.48
66945;BME280;53853;51.982;5.928;2022-09-09T06:12:30;100608.31;;;16.82;77.74
66945;BME280;53853;51.982;5.928;2022-09-09T06:15:02;100597.34;;;16.83;77.78
66945;BME280;53853;51.982;5.928;2022-09-09T06:17:35;100598.16;;;16.84;77.71
66945;BME280;53853;51.982;5.928;2022-09-09T06:20:06;100606.34;;;16.91;77.81
66945;BME280;53853;51.982;5.928;2022-09-09T06:22:38;100601.00;;;16.97;77.68
66945;BME280;53853;51.982;5.928;2022-09-09T06:25:09;100608.09;;;17.05;77.56
66945;BME280;53853;51.982;5.928;2022-09-09T06:27:40;100607.50;;;17.10;77.42
66945;BME280;53853;51.982;5.928;2022-09-09T06:30:11;100609.75;;;17.13;77.30
66945;BME280;53853;51.982;5.928;2022-09-09T06:32:44;100612.72;;;17.18;77.14
66945;BME280;53853;51.982;5.928;2022-09-09T06:35:14;100608.56;;;17.22;77.03
66945;BME280;53853;51.982;5.928;2022-09-09T06:37:45;100614.63;;;17.31;76.89
66945;BME280;53853;51.982;5.928;2022-09-09T06:40:16;100612.16;;;17.36;76.62
66945;BME280;53853;51.982;5.928;2022-09-09T06:42:46;100610.94;;;17.38;76.08
66945;BME280;53853;51.982;5.928;2022-09-09T06:45:33;100620.25;;;17.36;76.13
66945;BME280;53853;51.982;5.928;2022-09-09T06:48:06;100623.75;;;17.36;76.03
66945;BME280;53853;51.982;5.928;2022-09-09T06:50:36;100621.06;;;17.36;76.18
66945;BME280;53853;51.982;5.928;2022-09-09T06:53:06;100618.81;;;17.40;76.10
66945;BME280;53853;51.982;5.928;2022-09-09T06:55:36;100614.88;;;17.43;76.09
66945;BME280;53853;51.982;5.928;2022-09-09T06:58:08;100601.00;;;17.46;76.08
66945;BME280;53853;51.982;5.928;2022-09-09T07:00:38;100605.19;;;17.48;75.86
66945;BME280;53853;51.982;5.928;2022-09-09T07:03:12;100604.38;;;17.54;76.13
66945;BME280;53853;51.982;5.928;2022-09-09T07:05:42;100608.09;;;17.60;75.34
66945;BME280;53853;51.982;5.928;2022-09-09T07:08:12;100611.06;;;17.65;75.53
66945;BME280;53853;51.982;5.928;2022-09-09T07:10:44;100612.09;;;17.71;75.44
66945;BME280;53853;51.982;5.928;2022-09-09T07:13:14;100618.53;;;17.77;74.99
66945;BME280;53853;51.982;5.928;2022-09-09T07:15:48;100609.00;;;17.81;74.41
66945;BME280;53853;51.982;5.928;2022-09-09T07:18:20;100618.97;;;17.87;74.85
66945;BME280;53853;51.982;5.928;2022-09-09T07:20:53;100607.22;;;17.95;74.55
66945;BME280;53853;51.982;5.928;2022-09-09T07:23:25;100610.53;;;17.97;74.11
66945;BME280;53853;51.982;5.928;2022-09-09T07:25:55;100615.31;;;18.01;73.85
66945;BME280;53853;51.982;5.928;2022-09-09T07:28:26;100615.50;;;18.06;74.10
66945;BME280;53853;51.982;5.928;2022-09-09T07:30:59;100614.91;;;18.11;73.39
66945;BME280;53853;51.982;5.928;2022-09-09T07:33:34;100616.16;;;18.15;73.50
66945;BME280;53853;51.982;5.928;2022-09-09T07:36:07;100608.47;;;18.19;72.39
66945;BME280;53853;51.982;5.928;2022-09-09T07:38:39;100614.94;;;18.18;72.70
66945;BME280;53853;51.982;5.928;2022-09-09T07:41:12;100622.81;;;18.26;72.52
66945;BME280;53853;51.982;5.928;2022-09-09T07:43:44;100604.97;;;18.32;72.45
66945;BME280;53853;51.982;5.928;2022-09-09T07:46:16;100611.41;;;18.37;72.40
66945;BME280;53853;51.982;5.928;2022-09-09T07:48:51;100609.13;;;18.47;72.84
66945;BME280;53853;51.982;5.928;2022-09-09T07:51:28;100617.66;;;18.58;72.19
66945;BME280;53853;51.982;5.928;2022-09-09T07:54:00;100621.38;;;18.70;71.96
66945;BME280;53853;51.982;5.928;2022-09-09T07:56:33;100622.41;;;18.76;71.64
66945;BME280;53853;51.982;5.928;2022-09-09T07:59:04;100624.69;;;18.79;71.10
66945;BME280;53853;51.982;5.928;2022-09-09T08:01:36;100624.88;;;18.77;70.96
66945;BME280;53853;51.982;5.928;2022-09-09T08:04:12;100630.47;;;18.82;70.20
66945;BME280;53853;51.982;5.928;2022-09-09T08:06:45;100628.66;;;18.90;69.75
66945;BME280;53853;51.982;5.928;2022-09-09T08:09:17;100628.22;;;18.99;69.80
66945;BME280;53853;51.982;5.928;2022-09-09T08:11:48;100629.88;;;19.07;69.52
66945;BME280;53853;51.982;5.928;2022-09-09T08:14:18;100625.91;;;19.10;69.45
66945;BME280;53853;51.982;5.928;2022-09-09T08:16:50;100630.69;;;19.08;68.91
66945;BME280;53853;51.982;5.928;2022-09-09T08:19:25;100634.66;;;19.05;68.38
66945;BME280;53853;51.982;5.928;2022-09-09T08:21:57;100640.91;;;18.99;68.27
66945;BME280;53853;51.982;5.928;2022-09-09T08:24:28;100623.03;;;18.98;68.35
66945;BME280;53853;51.982;5.928;2022-09-09T08:26:58;100627.38;;;18.99;68.88
66945;BME280;53853;51.982;5.928;2022-09-09T08:29:29;100636.09;;;19.01;68.58
66945;BME280;53853;51.982;5.928;2022-09-09T08:31:59;100620.09;;;19.06;68.01
66945;BME280;53853;51.982;5.928;2022-09-09T08:34:33;100634.84;;;19.10;66.65
66945;BME280;53853;51.982;5.928;2022-09-09T08:37:08;100637.16;;;19.07;67.24
66945;BME280;53853;51.982;5.928;2022-09-09T08:39:40;100634.44;;;19.07;67.68
66945;BME280;53853;51.982;5.928;2022-09-09T08:42:23;100639.84;;;19.00;67.66
66945;BME280;53853;51.982;5.928;2022-09-09T08:45:21;100647.94;;;19.00;67.92
66945;BME280;53853;51.982;5.928;2022-09-09T08:48:08;100639.19;;;19.05;67.83
66945;BME280;53853;51.982;5.928;2022-09-09T08:50:46;100643.56;;;19.06;67.50
66945;BME280;53853;51.982;5.928;2022-09-09T08:53:26;100642.34;;;19.08;67.08
66945;BME280;53853;51.982;5.928;2022-09-09T08:55:59;100640.44;;;19.09;67.14
66945;BME280;53853;51.982;5.928;2022-09-09T08:58:45;100642.13;;;19.10;67.50
66945;BME280;53853;51.982;5.928;2022-09-09T09:01:41;100631.94;;;19.12;66.93
66945;BME280;53853;51.982;5.928;2022-09-09T09:04:30;100648.97;;;19.12;67.19
66945;BME280;53853;51.982;5.928;2022-09-09T09:07:15;100651.44;;;19.14;67.55
66945;BME280;53853;51.982;5.928;2022-09-09T09:09:57;100656.22;;;19.18;67.14
66945;BME280;53853;51.982;5.928;2022-09-09T09:12:39;100647.91;;;19.20;66.06
66945;BME280;53853;51.982;5.928;2022-09-09T09:15:18;100656.19;;;19.25;66.07
66945;BME280;53853;51.982;5.928;2022-09-09T09:17:50;100656.00;;;19.33;65.16
66945;BME280;53853;51.982;5.928;2022-09-09T09:20:27;100661.38;;;19.40;65.33
66945;BME280;53853;51.982;5.928;2022-09-09T09:23:03;100655.72;;;19.48;64.87
66945;BME280;53853;51.982;5.928;2022-09-09T09:25:37;100653.63;;;19.50;64.55
66945;BME280;53853;51.982;5.928;2022-09-09T09:28:13;100658.81;;;19.52;63.70
66945;BME280;53853;51.982;5.928;2022-09-09T09:30:52;100657.59;;;19.54;64.52
66945;BME280;53853;51.982;5.928;2022-09-09T09:33:27;100648.44;;;19.55;64.39
66945;BME280;53853;51.982;5.928;2022-09-09T09:36:01;100658.00;;;19.51;64.20
66945;BME280;53853;51.982;5.928;2022-09-09T09:38:36;100660.72;;;19.51;64.39
66945;BME280;53853;51.982;5.928;2022-09-09T09:41:07;100654.28;;;19.52;63.62
66945;BME280;53853;51.982;5.928;2022-09-09T09:43:40;100651.31;;;19.61;64.28
66945;BME280;53853;51.982;5.928;2022-09-09T09:46:21;100654.38;;;19.71;64.30
66945;BME280;53853;51.982;5.928;2022-09-09T09:49:00;100655.63;;;19.75;63.03
66945;BME280;53853;51.982;5.928;2022-09-09T09:51:33;100651.03;;;19.82;63.44
66945;BME280;53853;51.982;5.928;2022-09-09T09:54:14;100659.09;;;19.96;63.80
66945;BME280;53853;51.982;5.928;2022-09-09T09:56:53;100648.41;;;20.07;61.96
66945;BME280;53853;51.982;5.928;2022-09-09T09:59:32;100639.84;;;20.11;62.43
66945;BME280;53853;51.982;5.928;2022-09-09T10:02:15;100645.66;;;20.14;62.22
66945;BME280;53853;51.982;5.928;2022-09-09T10:04:47;100648.97;;;20.16;61.31
66945;BME280;53853;51.982;5.928;2022-09-09T10:07:20;100653.09;;;20.19;61.29
66945;BME280;53853;51.982;5.928;2022-09-09T10:09:54;100645.22;;;20.17;61.03
66945;BME280;53853;51.982;5.928;2022-09-09T10:12:35;100661.09;;;20.07;61.64
66945;BME280;53853;51.982;5.928;2022-09-09T10:15:21;100649.47;;;20.00;61.66
66945;BME280;53853;51.982;5.928;2022-09-09T10:18:01;100649.09;;;19.96;61.81
66945;BME280;53853;51.982;5.928;2022-09-09T10:20:40;100648.69;;;19.93;62.01
66945;BME280;53853;51.982;5.928;2022-09-09T10:23:22;100650.34;;;19.94;61.85
66945;BME280;53853;51.982;5.928;2022-09-09T10:26:11;100649.94;;;19.90;61.58
66945;BME280;53853;51.982;5.928;2022-09-09T10:29:10;100650.38;;;19.87;61.92
66945;BME280;53853;51.982;5.928;2022-09-09T10:31:54;100649.13;;;19.89;62.45
66945;BME280;53853;51.982;5.928;2022-09-09T10:34:42;100648.28;;;19.96;62.56
66945;BME280;53853;51.982;5.928;2022-09-09T10:37:30;100650.94;;;20.02;62.57
66945;BME280;53853;51.982;5.928;2022-09-09T10:40:22;100646.75;;;20.06;61.70
66945;BME280;53853;51.982;5.928;2022-09-09T10:43:04;100658.00;;;20.03;62.03
66945;BME280;53853;51.982;5.928;2022-09-09T10:45:47;100649.03;;;20.03;61.35
66945;BME280;53853;51.982;5.928;2022-09-09T10:48:35;100657.59;;;20.00;61.83
66945;BME280;53853;51.982;5.928;2022-09-09T10:51:19;100654.50;;;19.96;61.91
66945;BME280;53853;51.982;5.928;2022-09-09T10:54:01;100649.91;;;19.97;63.38
66945;BME280;53853;51.982;5.928;2022-09-09T10:56:35;100655.31;;;19.97;63.29
66945;BME280;53853;51.982;5.928;2022-09-09T10:59:13;100650.75;;;19.97;63.57
66945;BME280;53853;51.982;5.928;2022-09-09T11:01:51;100651.38;;;19.99;63.78
66945;BME280;53853;51.982;5.928;2022-09-09T11:04:24;100645.31;;;20.04;63.14
66945;BME280;53853;51.982;5.928;2022-09-09T11:06:56;100642.59;;;20.04;62.33
66945;BME280;53853;51.982;5.928;2022-09-09T11:09:28;100645.31;;;20.04;63.04
66945;BME280;53853;51.982;5.928;2022-09-09T11:12:02;100636.75;;;20.07;62.92
66945;BME280;53853;51.982;5.928;2022-09-09T11:14:38;100638.22;;;20.09;61.91
66945;BME280;53853;51.982;5.928;2022-09-09T11:17:13;100644.66;;;20.08;61.34
66945;BME280;53853;51.982;5.928;2022-09-09T11:19:45;100651.94;;;20.08;62.01
66945;BME280;53853;51.982;5.928;2022-09-09T11:22:20;100653.19;;;20.05;62.74
66945;BME280;53853;51.982;5.928;2022-09-09T11:24:54;100656.56;;;20.01;64.53
66945;BME280;53853;51.982;5.928;2022-09-09T11:27:29;100657.38;;;20.01;65.69
66945;BME280;53853;51.982;5.928;2022-09-09T11:30:18;100649.25;;;20.08;65.76
66945;BME280;53853;51.982;5.928;2022-09-09T11:33:08;100656.25;;;20.16;66.34
66945;BME280;53853;51.982;5.928;2022-09-09T11:35:48;100651.03;;;20.21;66.32
66945;BME280;53853;51.982;5.928;2022-09-09T11:38:27;100657.84;;;20.30;65.68
66945;BME280;53853;51.982;5.928;2022-09-09T11:41:00;100658.22;;;20.34;64.37
66945;BME280;53853;51.982;5.928;2022-09-09T11:43:38;100663.66;;;20.34;64.33
66945;BME280;53853;51.982;5.928;2022-09-09T11:46:13;100663.25;;;20.30;64.36
66945;BME280;53853;51.982;5.928;2022-09-09T11:48:46;100661.16;;;20.32;64.86
66945;BME280;53853;51.982;5.928;2022-09-09T11:51:28;100654.66;;;20.40;64.67
66945;BME280;53853;51.982;5.928;2022-09-09T11:54:00;100652.75;;;20.40;64.17
66945;BME280;53853;51.982;5.928;2022-09-09T11:56:33;100656.28;;;20.41;64.34
66945;BME280;53853;51.982;5.928;2022-09-09T11:59:05;100661.69;;;20.41;64.81
66945;BME280;53853;51.982;5.928;2022-09-09T12:01:41;100655.03;;;20.43;64.79
66945;BME280;53853;51.982;5.928;2022-09-09T12:07:25;100653.91;;;20.26;66.46
66945;BME280;53853;51.982;5.928;2022-09-09T12:09:59;100653.69;;;20.27;67.03
66945;BME280;53853;51.982;5.928;2022-09-09T12:12:33;100651.16;;;20.33;67.06
66945;BME280;53853;51.982;5.928;2022-09-09T12:15:25;100650.84;;;20.48;65.83
66945;BME280;53853;51.982;5.928;2022-09-09T12:17:59;100653.78;;;20.46;65.75
66945;BME280;53853;51.982;5.928;2022-09-09T12:20:33;100658.50;;;20.51;65.78
66945;BME280;53853;51.982;5.928;2022-09-09T12:23:19;100652.72;;;20.47;65.08
66945;BME280;53853;51.982;5.928;2022-09-09T12:26:05;100643.59;;;20.41;65.56
66945;BME280;53853;51.982;5.928;2022-09-09T12:28:49;100650.88;;;20.41;65.39
66945;BME280;53853;51.982;5.928;2022-09-09T12:31:25;100649.25;;;20.40;65.35
66945;BME280;53853;51.982;5.928;2022-09-09T12:34:08;100650.00;;;20.47;65.30
66945;BME280;53853;51.982;5.928;2022-09-09T12:36:40;100651.59;;;20.55;65.45
66945;BME280;53853;51.982;5.928;2022-09-09T12:39:19;100645.72;;;20.65;64.82
66945;BME280;53853;51.982;5.928;2022-09-09T12:41:54;100645.22;;;20.74;64.53
66945;BME280;53853;51.982;5.928;2022-09-09T12:44:25;100638.97;;;20.74;64.14
66945;BME280;53853;51.982;5.928;2022-09-09T12:46:56;100635.00;;;20.76;63.49
66945;BME280;53853;51.982;5.928;2022-09-09T12:49:34;100636.63;;;20.84;63.92
66945;BME280;53853;51.982;5.928;2022-09-09T12:52:08;100634.06;;;20.89;63.41
66945;BME280;53853;51.982;5.928;2022-09-09T12:54:45;100638.88;;;20.87;63.56
66945;BME280;53853;51.982;5.928;2022-09-09T12:57:18;100628.19;;;20.92;63.38
66945;BME280;53853;51.982;5.928;2022-09-09T12:59:48;100633.97;;;20.96;62.63
66945;BME280;53853;51.982;5.928;2022-09-09T13:02:21;100622.16;;;20.90;63.04
66945;BME280;53853;51.982;5.928;2022-09-09T13:04:53;100619.72;;;20.82;63.13
66945;BME280;53853;51.982;5.928;2022-09-09T13:07:23;100623.97;;;20.78;63.49
66945;BME280;53853;51.982;5.928;2022-09-09T13:09:53;100622.28;;;20.77;63.63
66945;BME280;53853;51.982;5.928;2022-09-09T13:12:23;100631.97;;;20.66;63.92
66945;BME280;53853;51.982;5.928;2022-09-09T13:14:55;100625.75;;;20.59;64.89
66945;BME280;53853;51.982;5.928;2022-09-09T13:17:26;100618.97;;;20.50;66.65
66945;BME280;53853;51.982;5.928;2022-09-09T13:19:59;100623.16;;;20.45;66.76
66945;BME280;53853;51.982;5.928;2022-09-09T13:22:33;100619.34;;;20.53;67.07
66945;BME280;53853;51.982;5.928;2022-09-09T13:25:16;100616.13;;;20.63;66.56
66945;BME280;53853;51.982;5.928;2022-09-09T13:27:54;100615.84;;;20.78;66.91
66945;BME280;53853;51.982;5.928;2022-09-09T13:33:04;100613.97;;;20.97;64.62
66945;BME280;53853;51.982;5.928;2022-09-09T13:35:46;100610.41;;;20.96;63.61
66945;BME280;53853;51.982;5.928;2022-09-09T13:38:17;100611.28;;;20.97;64.10
66945;BME280;53853;51.982;5.928;2022-09-09T13:40:58;100609.75;;;21.01;63.59